Time;durP1;ratioP1;P1;durP2;ratioP2;P2;SDS_P1;SDS_P2;PMS_P1;PMS_P2;Temp;Humidity;BMP_temperature;BMP_pressure;BME280_temperature;BME280_humidity;BME280_pressure;Samples;Min_cycle;Max_cycle;Signal;HPM_P1;HPM_P2
2022/07/24 00:01:37;;;;;;;;;12.25;12.25;;;;;;;;5040219;28;8857;-79
2022/07/24 00:04:06;;;;;;;;;12.75;12.75;;;;;;;;5041987;28;8859;-79
2022/07/24 00:06:33;;;;;;;;;11.75;11.75;;;;;;;;5040073;28;8823;-79
2022/07/24 00:09:01;;;;;;;;;16.25;13.25;;;;;;;;5043019;28;8878;-79
2022/07/24 00:11:29;;;;;;;;;11.25;11.25;;;;;;;;5047473;28;9016;-80
2022/07/24 00:13:56;;;;;;;;;15.00;11.50;;;;;;;;5041003;28;8885;-80
2022/07/24 00:16:23;;;;;;;;;11.75;11.50;;;;;;;;5045355;28;8893;-80
2022/07/24 00:18:50;;;;;;;;;15.75;11.75;;;;;;;;5046710;28;8879;-80
2022/07/24 00:21:19;;;;;;;;;11.25;11.25;;;;;;;;5042369;28;8899;-80
2022/07/24 00:23:47;;;;;;;;;15.25;15.25;;;;;;;;5042000;28;8851;-80
2022/07/24 00:26:14;;;;;;;;;13.50;13.50;;;;;;;;5045038;28;8889;-82
2022/07/24 00:28:41;;;;;;;;;10.75;10.75;;;;;;;;5044058;28;8851;-81
2022/07/24 00:31:09;;;;;;;;;11.75;11.00;;;;;;;;5039689;28;8868;-82
2022/07/24 00:33:36;;;;;;;;;9.25;9.25;;;;;;;;5046590;28;8904;-82
2022/07/24 00:36:03;;;;;;;;;11.75;9.75;;;;;;;;5041883;28;8852;-82
2022/07/24 00:38:32;;;;;;;;;15.50;15.50;;;;;;;;5040273;28;8866;-81
2022/07/24 00:41:00;;;;;;;;;16.75;13.75;;;;;;;;5044588;28;8942;-81
2022/07/24 00:43:27;;;;;;;;;14.00;13.25;;;;;;;;5041816;28;8850;-81
2022/07/24 00:45:55;;;;;;;;;15.25;15.00;;;;;;;;5043808;28;9593;-82
2022/07/24 00:48:22;;;;;;;;;13.75;13.75;;;;;;;;5041917;28;8855;-81
2022/07/24 00:50:50;;;;;;;;;15.50;14.00;;;;;;;;5051874;28;8879;-83
2022/07/24 00:53:17;;;;;;;;;16.25;14.75;;;;;;;;5050412;28;9733;-82
2022/07/24 00:55:46;;;;;;;;;11.50;11.50;;;;;;;;5042980;28;8932;-81
2022/07/24 00:58:13;;;;;;;;;16.00;16.00;;;;;;;;5039318;28;8867;-81
2022/07/24 01:00:41;;;;;;;;;11.50;11.50;;;;;;;;5040385;28;8820;-81
2022/07/24 01:03:08;;;;;;;;;13.25;10.00;;;;;;;;5044763;28;8843;-80
2022/07/24 01:05:35;;;;;;;;;13.25;10.25;;;;;;;;5050472;28;8856;-82
2022/07/24 01:08:03;;;;;;;;;14.25;13.50;;;;;;;;5044696;28;8856;-81
2022/07/24 01:10:31;;;;;;;;;9.50;9.50;;;;;;;;5042386;28;8847;-82
2022/07/24 01:12:59;;;;;;;;;13.50;12.25;;;;;;;;5039971;28;8867;-82
2022/07/24 01:15:27;;;;;;;;;11.50;10.75;;;;;;;;5042827;28;8897;-80
2022/07/24 01:17:54;;;;;;;;;11.75;11.75;;;;;;;;5035506;28;8862;-79
2022/07/24 01:20:22;;;;;;;;;9.75;9.75;;;;;;;;5042990;28;8862;-80
2022/07/24 01:22:51;;;;;;;;;16.50;15.25;;;;;;;;5047361;28;8921;-80
2022/07/24 01:25:18;;;;;;;;;9.75;9.75;;;;;;;;5048443;28;8881;-80
2022/07/24 01:27:45;;;;;;;;;7.00;7.00;;;;;;;;5047673;28;8852;-80
2022/07/24 01:30:12;;;;;;;;;11.25;9.00;;;;;;;;5041566;28;9006;-80
2022/07/24 01:32:40;;;;;;;;;11.75;9.25;;;;;;;;5041705;28;8859;-80
2022/07/24 01:35:08;;;;;;;;;12.00;11.00;;;;;;;;5045453;28;8890;-80
2022/07/24 01:37:35;;;;;;;;;10.75;8.50;;;;;;;;5044862;28;8842;-80
2022/07/24 01:40:05;;;;;;;;;13.50;13.25;;;;;;;;5043674;28;8871;-80
2022/07/24 01:42:32;;;;;;;;;11.75;9.75;;;;;;;;5051600;28;8864;-80
2022/07/24 01:44:59;;;;;;;;;9.50;8.75;;;;;;;;5040493;28;8893;-80
2022/07/24 01:47:27;;;;;;;;;13.75;11.75;;;;;;;;5043123;28;8949;-80
2022/07/24 01:49:54;;;;;;;;;11.75;11.25;;;;;;;;5043026;28;8918;-79
2022/07/24 01:52:24;;;;;;;;;11.75;11.75;;;;;;;;5045131;28;9001;-80
2022/07/24 01:54:52;;;;;;;;;10.00;8.50;;;;;;;;5043756;28;8839;-79
2022/07/24 01:57:20;;;;;;;;;13.00;10.75;;;;;;;;5042836;28;8871;-80
2022/07/24 01:59:48;;;;;;;;;9.25;9.25;;;;;;;;5044628;28;8879;-80
2022/07/24 02:02:15;;;;;;;;;10.00;10.00;;;;;;;;5048689;28;8828;-81
2022/07/24 02:04:43;;;;;;;;;8.00;8.00;;;;;;;;5037663;28;8961;-80
2022/07/24 02:07:10;;;;;;;;;13.00;11.00;;;;;;;;5042197;28;8983;-80
2022/07/24 02:09:38;;;;;;;;;7.50;7.50;;;;;;;;5044710;28;8855;-81
2022/07/24 02:12:06;;;;;;;;;10.75;10.75;;;;;;;;5036016;28;8981;-82
2022/07/24 02:14:35;;;;;;;;;14.00;13.00;;;;;;;;5043918;28;8910;-82
2022/07/24 02:17:03;;;;;;;;;12.00;12.00;;;;;;;;5039663;28;9010;-80
2022/07/24 02:19:31;;;;;;;;;11.50;11.50;;;;;;;;5043669;28;8875;-80
2022/07/24 02:21:58;;;;;;;;;12.00;10.25;;;;;;;;5042116;28;8909;-81
2022/07/24 02:24:25;;;;;;;;;12.25;11.00;;;;;;;;5037704;28;8885;-83
2022/07/24 02:26:53;;;;;;;;;12.50;9.75;;;;;;;;5043840;28;8913;-83
2022/07/24 02:29:20;;;;;;;;;9.75;9.75;;;;;;;;5052002;28;8907;-83
2022/07/24 02:31:49;;;;;;;;;12.00;12.00;;;;;;;;5047851;28;8905;-82
2022/07/24 02:34:16;;;;;;;;;13.00;10.25;;;;;;;;5042095;28;8886;-82
2022/07/24 02:36:43;;;;;;;;;9.00;9.00;;;;;;;;5043103;28;8993;-82
2022/07/24 02:39:11;;;;;;;;;12.00;12.00;;;;;;;;5049830;28;8937;-82
2022/07/24 02:41:38;;;;;;;;;11.00;11.00;;;;;;;;5052052;28;8882;-83
2022/07/24 02:44:06;;;;;;;;;14.50;10.75;;;;;;;;5051947;28;8863;-82
2022/07/24 02:46:33;;;;;;;;;16.00;13.00;;;;;;;;5051961;28;9025;-82
2022/07/24 02:49:02;;;;;;;;;11.50;11.50;;;;;;;;5044654;28;8909;-82
2022/07/24 02:51:29;;;;;;;;;14.00;12.75;;;;;;;;5049403;28;8859;-83
2022/07/24 02:53:56;;;;;;;;;12.75;12.75;;;;;;;;5045630;28;8932;-83
2022/07/24 02:56:24;;;;;;;;;12.25;11.50;;;;;;;;5045812;28;8877;-83
2022/07/24 02:58:51;;;;;;;;;11.00;11.00;;;;;;;;5044387;28;8889;-80
2022/07/24 03:01:18;;;;;;;;;9.50;9.50;;;;;;;;5044887;28;8819;-81
2022/07/24 03:03:45;;;;;;;;;13.75;13.25;;;;;;;;5044442;28;8921;-83
2022/07/24 03:06:14;;;;;;;;;11.75;11.50;;;;;;;;5044693;28;8876;-82
2022/07/24 03:08:42;;;;;;;;;13.75;13.00;;;;;;;;5050829;28;8883;-81
2022/07/24 03:11:09;;;;;;;;;11.00;10.50;;;;;;;;5043474;28;8898;-83
2022/07/24 03:13:37;;;;;;;;;11.25;11.25;;;;;;;;5044617;28;8879;-81
2022/07/24 03:16:04;;;;;;;;;9.00;9.00;;;;;;;;5042170;28;9729;-81
2022/07/24 03:18:32;;;;;;;;;6.75;6.75;;;;;;;;5047140;28;8863;-81
2022/07/24 03:20:59;;;;;;;;;9.50;9.50;;;;;;;;5042110;28;8904;-80
2022/07/24 03:23:28;;;;;;;;;10.25;10.25;;;;;;;;5044515;28;9667;-79
2022/07/24 03:25:56;;;;;;;;;10.25;10.25;;;;;;;;5043276;28;8874;-80
2022/07/24 03:28:23;;;;;;;;;9.25;9.25;;;;;;;;5045086;28;8886;-80
2022/07/24 03:30:51;;;;;;;;;10.75;10.75;;;;;;;;5043417;28;8945;-80
2022/07/24 03:33:18;;;;;;;;;14.00;12.50;;;;;;;;5042905;28;8855;-80
2022/07/24 03:35:45;;;;;;;;;12.75;12.75;;;;;;;;5057121;28;8887;-80
2022/07/24 03:38:13;;;;;;;;;12.50;11.50;;;;;;;;5045979;28;8851;-80
2022/07/24 03:40:42;;;;;;;;;10.50;8.50;;;;;;;;5055554;28;8873;-80
2022/07/24 03:43:09;;;;;;;;;11.00;11.00;;;;;;;;5043788;28;8899;-80
2022/07/24 03:45:36;;;;;;;;;13.75;12.00;;;;;;;;5051892;28;8869;-80
2022/07/24 03:48:04;;;;;;;;;12.00;12.00;;;;;;;;5046264;28;8863;-80
2022/07/24 03:50:32;;;;;;;;;6.75;6.75;;;;;;;;5046786;28;8906;-82
2022/07/24 03:52:59;;;;;;;;;13.50;13.50;;;;;;;;5041882;28;8902;-81
2022/07/24 03:55:26;;;;;;;;;16.25;12.25;;;;;;;;5044450;28;8878;-81
2022/07/24 03:57:55;;;;;;;;;17.50;15.00;;;;;;;;5048233;28;9690;-80
2022/07/24 04:00:22;;;;;;;;;10.25;8.75;;;;;;;;5042380;28;8859;-81
2022/07/24 04:02:50;;;;;;;;;12.75;12.75;;;;;;;;5043352;28;9605;-80
2022/07/24 04:05:17;;;;;;;;;12.50;12.00;;;;;;;;5038049;28;10701;-80
2022/07/24 04:07:45;;;;;;;;;15.00;14.00;;;;;;;;5042875;28;8863;-81
2022/07/24 04:10:12;;;;;;;;;15.25;15.25;;;;;;;;5043350;28;10077;-81
2022/07/24 04:12:40;;;;;;;;;13.25;13.25;;;;;;;;5037251;28;8855;-81
2022/07/24 04:15:10;;;;;;;;;13.75;13.50;;;;;;;;5042975;28;8881;-81
2022/07/24 04:17:39;;;;;;;;;10.50;10.50;;;;;;;;5052216;28;8949;-81
2022/07/24 04:20:08;;;;;;;;;11.50;11.50;;;;;;;;5053015;28;8891;-80
2022/07/24 04:22:35;;;;;;;;;14.50;11.50;;;;;;;;5040004;28;8940;-80
2022/07/24 04:25:03;;;;;;;;;12.75;12.75;;;;;;;;5043927;28;8913;-82
2022/07/24 04:27:31;;;;;;;;;9.50;9.50;;;;;;;;5043029;28;8863;-80
2022/07/24 04:29:59;;;;;;;;;15.75;14.50;;;;;;;;5044179;28;9676;-81
2022/07/24 04:32:28;;;;;;;;;11.50;10.50;;;;;;;;5037310;28;8860;-80
2022/07/24 04:34:55;;;;;;;;;12.00;12.00;;;;;;;;5041654;28;8859;-81
2022/07/24 04:37:22;;;;;;;;;15.00;15.00;;;;;;;;5042865;28;8886;-81
2022/07/24 04:39:49;;;;;;;;;14.75;14.50;;;;;;;;5039994;28;8879;-81
2022/07/24 04:42:17;;;;;;;;;13.00;11.25;;;;;;;;5051857;28;8869;-83
2022/07/24 04:44:44;;;;;;;;;12.50;12.50;;;;;;;;5041897;28;8839;-82
2022/07/24 04:47:11;;;;;;;;;15.50;13.75;;;;;;;;5042852;28;8859;-83
2022/07/24 04:49:40;;;;;;;;;12.00;12.00;;;;;;;;5041893;28;8868;-81
2022/07/24 04:52:07;;;;;;;;;10.50;10.50;;;;;;;;5042913;28;8994;-81
2022/07/24 04:54:34;;;;;;;;;15.00;13.75;;;;;;;;5043795;28;8908;-80
2022/07/24 04:57:02;;;;;;;;;13.50;11.75;;;;;;;;5044414;28;8859;-80
2022/07/24 04:59:29;;;;;;;;;14.50;11.75;;;;;;;;5051600;28;8839;-82
2022/07/24 05:01:56;;;;;;;;;12.25;12.25;;;;;;;;5036466;28;8833;-82
2022/07/24 05:04:24;;;;;;;;;14.25;14.25;;;;;;;;5042955;28;9713;-81
2022/07/24 05:06:52;;;;;;;;;13.00;13.00;;;;;;;;5042770;28;8851;-82
2022/07/24 05:09:20;;;;;;;;;14.75;13.00;;;;;;;;5042725;28;9005;-82
2022/07/24 05:11:47;;;;;;;;;14.75;14.00;;;;;;;;5038031;28;8887;-84
2022/07/24 05:14:14;;;;;;;;;19.75;17.00;;;;;;;;5042001;28;8965;-84
2022/07/24 05:16:42;;;;;;;;;14.25;14.25;;;;;;;;5054002;28;8875;-84
2022/07/24 05:19:09;;;;;;;;;14.50;11.75;;;;;;;;5042772;28;8989;-84
2022/07/24 05:21:37;;;;;;;;;15.00;15.00;;;;;;;;5043661;28;8906;-84
2022/07/24 05:24:06;;;;;;;;;16.00;14.75;;;;;;;;5051070;28;8856;-85
2022/07/24 05:26:34;;;;;;;;;15.00;12.75;;;;;;;;5046390;28;8859;-84
2022/07/24 05:29:02;;;;;;;;;15.25;14.00;;;;;;;;5044389;28;8898;-80
2022/07/24 05:31:29;;;;;;;;;16.25;16.25;;;;;;;;5041038;28;8858;-84
2022/07/24 05:33:58;;;;;;;;;17.25;17.25;;;;;;;;5044649;28;8871;-82
2022/07/24 05:36:25;;;;;;;;;15.00;13.25;;;;;;;;5043988;28;8913;-84
2022/07/24 05:38:52;;;;;;;;;14.50;13.50;;;;;;;;5045156;28;8859;-83
2022/07/24 05:41:21;;;;;;;;;16.00;16.00;;;;;;;;5041580;28;8855;-81
2022/07/24 05:43:49;;;;;;;;;15.75;14.00;;;;;;;;5040832;28;8978;-83
2022/07/24 05:46:16;;;;;;;;;16.75;15.50;;;;;;;;5024880;28;8851;-81
2022/07/24 05:48:43;;;;;;;;;14.50;14.50;;;;;;;;5042647;28;8869;-84
2022/07/24 05:51:10;;;;;;;;;16.00;14.50;;;;;;;;5045914;28;8892;-83
2022/07/24 05:53:38;;;;;;;;;16.75;14.00;;;;;;;;5057832;28;8855;-83
2022/07/24 05:56:06;;;;;;;;;16.50;14.25;;;;;;;;5044978;28;8879;-83
2022/07/24 05:58:34;;;;;;;;;13.75;13.75;;;;;;;;5045528;28;9608;-85
2022/07/24 06:01:02;;;;;;;;;12.00;12.00;;;;;;;;5042002;28;8829;-82
2022/07/24 06:03:29;;;;;;;;;12.00;12.00;;;;;;;;5047426;28;8851;-83
2022/07/24 06:05:56;;;;;;;;;18.00;17.25;;;;;;;;5045802;28;8891;-85
2022/07/24 06:08:23;;;;;;;;;14.75;14.75;;;;;;;;5043301;28;8875;-83
2022/07/24 06:10:51;;;;;;;;;12.00;11.25;;;;;;;;5042695;28;8944;-80
2022/07/24 06:13:18;;;;;;;;;18.50;15.25;;;;;;;;5046413;28;8905;-80
2022/07/24 06:15:47;;;;;;;;;15.75;15.75;;;;;;;;5045677;28;8886;-83
2022/07/24 06:18:14;;;;;;;;;16.00;16.00;;;;;;;;5047243;28;8879;-83
2022/07/24 06:20:41;;;;;;;;;17.50;15.25;;;;;;;;5046060;28;8859;-82
2022/07/24 06:23:09;;;;;;;;;17.75;17.25;;;;;;;;5040807;28;8844;-74
2022/07/24 06:25:36;;;;;;;;;15.75;14.75;;;;;;;;5055724;28;8875;-75
2022/07/24 06:28:03;;;;;;;;;15.00;14.25;;;;;;;;5045296;28;8867;-78
2022/07/24 06:30:31;;;;;;;;;14.00;12.50;;;;;;;;5049105;28;9054;-77
2022/07/24 06:33:01;;;;;;;;;12.50;12.50;;;;;;;;5056673;28;8876;-79
2022/07/24 06:35:32;;;;;;;;;14.00;14.00;;;;;;;;5044682;28;9640;-79
2022/07/24 06:37:59;;;;;;;;;10.75;10.75;;;;;;;;5046220;28;8867;-79
2022/07/24 06:40:27;;;;;;;;;14.75;14.75;;;;;;;;5044269;28;8866;-77
2022/07/24 06:42:54;;;;;;;;;12.00;10.25;;;;;;;;5045816;28;8875;-78
2022/07/24 06:45:21;;;;;;;;;11.60;11.60;;;;;;;;5045607;28;8895;-74
2022/07/24 06:47:49;;;;;;;;;15.25;11.75;;;;;;;;5045236;28;8901;-73
2022/07/24 06:50:17;;;;;;;;;13.40;13.20;;;;;;;;5049357;28;8875;-72
2022/07/24 06:52:46;;;;;;;;;13.00;13.00;;;;;;;;5047150;28;8867;-74
2022/07/24 06:55:14;;;;;;;;;11.60;11.60;;;;;;;;5046007;28;8867;-78
2022/07/24 06:57:42;;;;;;;;;9.00;9.00;;;;;;;;5040507;28;8981;-80
2022/07/24 07:00:12;;;;;;;;;11.20;11.20;;;;;;;;5047878;28;8882;-80
2022/07/24 07:02:40;;;;;;;;;10.80;10.80;;;;;;;;5046073;28;8884;-82
2022/07/24 07:05:09;;;;;;;;;11.80;11.40;;;;;;;;5047512;28;8887;-81
2022/07/24 07:07:39;;;;;;;;;13.60;13.20;;;;;;;;5043991;28;8873;-88
2022/07/24 07:10:07;;;;;;;;;14.40;14.00;;;;;;;;5047430;28;8868;-83
2022/07/24 07:12:35;;;;;;;;;13.40;13.00;;;;;;;;5043401;28;8862;-82
2022/07/24 07:15:02;;;;;;;;;10.20;10.20;;;;;;;;5043696;28;8981;-81
2022/07/24 07:17:30;;;;;;;;;12.40;12.40;;;;;;;;5045609;28;8986;-83
2022/07/24 07:19:57;;;;;;;;;13.20;10.20;;;;;;;;5045702;28;8898;-90
2022/07/24 07:22:25;;;;;;;;;10.80;10.80;;;;;;;;5044507;28;8867;-84
2022/07/24 07:24:53;;;;;;;;;11.00;11.00;;;;;;;;5044260;28;8871;-84
2022/07/24 07:27:21;;;;;;;;;11.00;11.00;;;;;;;;5047119;28;8855;-84
2022/07/24 07:29:48;;;;;;;;;11.60;10.20;;;;;;;;5041432;28;9666;-80
2022/07/24 07:32:15;;;;;;;;;10.20;9.00;;;;;;;;5037745;28;8831;-83
2022/07/24 07:34:43;;;;;;;;;12.60;9.80;;;;;;;;5044219;28;8883;-79
2022/07/24 07:37:10;;;;;;;;;13.00;13.00;;;;;;;;5042486;28;8990;-80
2022/07/24 07:39:37;;;;;;;;;11.80;10.00;;;;;;;;5042692;28;8847;-82
2022/07/24 07:42:07;;;;;;;;;12.20;11.80;;;;;;;;5039262;28;8883;-83
2022/07/24 07:44:35;;;;;;;;;15.00;13.80;;;;;;;;5042396;28;8996;-82
2022/07/24 07:47:02;;;;;;;;;11.00;11.00;;;;;;;;5039192;28;8879;-81
2022/07/24 07:49:29;;;;;;;;;15.80;14.00;;;;;;;;5049074;28;8859;-82
2022/07/24 07:51:56;;;;;;;;;12.80;12.80;;;;;;;;5044483;28;8855;-82
2022/07/24 07:54:24;;;;;;;;;12.20;10.60;;;;;;;;5039690;28;8895;-79
2022/07/24 07:56:51;;;;;;;;;19.20;16.00;;;;;;;;5040125;28;8899;-86
2022/07/24 07:59:20;;;;;;;;;12.40;11.40;;;;;;;;5047147;28;8883;-82
2022/07/24 08:01:48;;;;;;;;;17.80;15.80;;;;;;;;5039814;28;8828;-82
2022/07/24 08:04:15;;;;;;;;;14.00;14.00;;;;;;;;5038135;28;9709;-83
2022/07/24 08:06:42;;;;;;;;;12.00;12.00;;;;;;;;5038693;28;8955;-82
2022/07/24 08:09:10;;;;;;;;;10.80;10.40;;;;;;;;5043700;28;9639;-84
2022/07/24 08:11:37;;;;;;;;;15.20;14.80;;;;;;;;5044874;28;8867;-83
2022/07/24 08:14:05;;;;;;;;;13.80;13.40;;;;;;;;5042350;28;8909;-81
2022/07/24 08:16:33;;;;;;;;;17.40;14.40;;;;;;;;5039640;28;8975;-85
2022/07/24 08:19:01;;;;;;;;;13.40;13.40;;;;;;;;5043567;28;8883;-81
2022/07/24 08:21:28;;;;;;;;;16.80;16.80;;;;;;;;5040513;28;8862;-81
2022/07/24 08:23:56;;;;;;;;;13.00;13.00;;;;;;;;5038550;28;8867;-82
2022/07/24 08:26:24;;;;;;;;;12.40;12.40;;;;;;;;5042623;28;8972;-84
2022/07/24 08:28:51;;;;;;;;;12.00;12.00;;;;;;;;5043774;28;8993;-82
2022/07/24 08:31:18;;;;;;;;;16.00;15.40;;;;;;;;5040065;28;8792;-83
2022/07/24 08:33:47;;;;;;;;;13.00;13.00;;;;;;;;5039445;28;8901;-82
2022/07/24 08:36:18;;;;;;;;;18.60;18.60;;;;;;;;5039244;28;8884;-84
2022/07/24 08:38:46;;;;;;;;;14.20;13.80;;;;;;;;5037885;28;8867;-84
2022/07/24 08:41:14;;;;;;;;;15.00;14.40;;;;;;;;5038842;28;8870;-81
2022/07/24 08:43:41;;;;;;;;;17.00;16.20;;;;;;;;5039748;28;8851;-83
2022/07/24 08:46:16;;;;;;;;;13.40;13.40;;;;;;;;5043509;28;8871;-85
2022/07/24 08:48:47;;;;;;;;;16.40;16.40;;;;;;;;5041999;28;8855;-80
2022/07/24 08:51:15;;;;;;;;;15.60;15.60;;;;;;;;5042645;28;8883;-84
2022/07/24 08:53:49;;;;;;;;;16.00;14.60;;;;;;;;5041742;28;8839;-84
2022/07/24 08:56:17;;;;;;;;;15.00;15.00;;;;;;;;5043298;28;9602;-86
2022/07/24 08:58:47;;;;;;;;;13.80;13.80;;;;;;;;5042705;28;8862;-84
2022/07/24 09:01:18;;;;;;;;;14.60;14.60;;;;;;;;5039129;28;8889;-85
2022/07/24 09:03:51;;;;;;;;;17.40;14.60;;;;;;;;5041494;28;8895;-83
2022/07/24 09:06:23;;;;;;;;;14.40;12.00;;;;;;;;5042028;28;8889;-81
2022/07/24 09:09:08;;;;;;;;;13.40;13.00;;;;;;;;5043166;28;8992;-82
2022/07/24 09:11:38;;;;;;;;;14.00;14.00;;;;;;;;5042953;28;8850;-81
2022/07/24 09:16:52;;;;;;;;;16.00;14.60;;;;;;;;5043183;28;8843;-84
2022/07/24 09:19:21;;;;;;;;;14.20;14.00;;;;;;;;5043499;28;8909;-82
2022/07/24 09:21:52;;;;;;;;;16.40;13.40;;;;;;;;5041994;28;8915;-84
2022/07/24 09:24:21;;;;;;;;;15.40;15.40;;;;;;;;5041776;28;8855;-82
2022/07/24 09:26:53;;;;;;;;;16.00;14.60;;;;;;;;5043420;28;8960;-83
2022/07/24 09:29:22;;;;;;;;;12.80;12.80;;;;;;;;5047539;28;8859;-82
2022/07/24 09:31:57;;;;;;;;;10.80;10.80;;;;;;;;5045280;28;8823;-81
2022/07/24 09:34:27;;;;;;;;;13.00;10.60;;;;;;;;5048017;28;8851;-79
2022/07/24 09:37:00;;;;;;;;;11.00;11.00;;;;;;;;5040573;28;8921;-80
2022/07/24 09:39:31;;;;;;;;;11.80;11.40;;;;;;;;5043110;28;8871;-79
2022/07/24 09:42:00;;;;;;;;;10.40;10.40;;;;;;;;5042692;28;8879;-82
2022/07/24 09:44:29;;;;;;;;;11.60;11.20;;;;;;;;5045609;28;8890;-82
2022/07/24 09:47:17;;;;;;;;;13.00;13.00;;;;;;;;5044273;28;8867;-82
2022/07/24 09:49:47;;;;;;;;;14.00;12.60;;;;;;;;5038614;28;8949;-78
2022/07/24 09:52:34;;;;;;;;;11.40;9.40;;;;;;;;5044617;28;8839;-87
2022/07/24 09:55:02;;;;;;;;;11.20;11.20;;;;;;;;5038985;28;8863;-80
2022/07/24 09:57:31;;;;;;;;;8.00;8.00;;;;;;;;5038569;28;8875;-82
2022/07/24 10:00:00;;;;;;;;;11.00;10.80;;;;;;;;5045709;28;8884;-83
2022/07/24 10:02:29;;;;;;;;;9.60;9.60;;;;;;;;5046894;28;8830;-86
2022/07/24 10:04:59;;;;;;;;;6.40;6.40;;;;;;;;5042395;28;8993;-85
2022/07/24 10:07:28;;;;;;;;;9.00;8.00;;;;;;;;5041138;28;8879;-83
2022/07/24 10:09:58;;;;;;;;;11.00;8.80;;;;;;;;5046050;28;8944;-85
2022/07/24 10:12:27;;;;;;;;;12.00;12.00;;;;;;;;5043513;28;8859;-89
2022/07/24 10:14:57;;;;;;;;;7.40;7.00;;;;;;;;5035736;28;9001;-94
2022/07/24 10:17:50;;;;;;;;;10.80;9.60;;;;;;;;5036646;28;8856;-91
2022/07/24 10:20:38;;;;;;;;;8.00;8.00;;;;;;;;5041260;28;9053;-87
2022/07/24 10:23:06;;;;;;;;;8.20;8.20;;;;;;;;5040318;28;8878;-86
2022/07/24 10:25:47;;;;;;;;;8.00;8.00;;;;;;;;5042347;28;8949;-86
2022/07/24 10:28:16;;;;;;;;;7.80;7.80;;;;;;;;5044349;28;8874;-87
2022/07/24 10:30:44;;;;;;;;;3.20;3.20;;;;;;;;5042233;28;8966;-84
2022/07/24 10:33:11;;;;;;;;;8.00;7.00;;;;;;;;5039120;28;8859;-85
2022/07/24 10:35:41;;;;;;;;;5.40;5.40;;;;;;;;5038930;28;8877;-83
2022/07/24 10:38:13;;;;;;;;;8.60;6.80;;;;;;;;5043276;28;8882;-86
2022/07/24 10:40:46;;;;;;;;;4.00;4.00;;;;;;;;5041731;28;8869;-85
2022/07/24 10:43:15;;;;;;;;;7.00;7.00;;;;;;;;5041604;28;9006;-88
2022/07/24 10:45:45;;;;;;;;;8.00;6.80;;;;;;;;5040698;28;8988;-86
2022/07/24 10:48:31;;;;;;;;;6.20;6.20;;;;;;;;5040847;28;8878;-85
2022/07/24 10:51:06;;;;;;;;;6.40;4.40;;;;;;;;5051411;28;8883;-86
2022/07/24 10:53:51;;;;;;;;;11.20;6.80;;;;;;;;5040378;28;8866;-83
2022/07/24 10:56:28;;;;;;;;;7.60;7.60;;;;;;;;5035897;28;8996;-86
2022/07/24 10:58:58;;;;;;;;;8.80;7.20;;;;;;;;5041989;28;8874;-87
2022/07/24 11:01:30;;;;;;;;;13.80;13.80;;;;;;;;5037456;28;8811;-88
2022/07/24 11:03:59;;;;;;;;;10.00;10.00;;;;;;;;5042845;28;8887;-86
2022/07/24 11:06:46;;;;;;;;;9.40;7.60;;;;;;;;5043176;28;8891;-88
2022/07/24 11:09:13;;;;;;;;;9.40;8.60;;;;;;;;5043215;28;8863;-89
2022/07/24 11:11:43;;;;;;;;;6.20;6.20;;;;;;;;5041611;28;8959;-81
2022/07/24 11:14:11;;;;;;;;;6.00;5.80;;;;;;;;5043440;28;8863;-79
2022/07/24 11:16:39;;;;;;;;;7.20;7.20;;;;;;;;5040385;28;9035;-81
2022/07/24 11:19:36;;;;;;;;;9.40;8.60;;;;;;;;5037368;28;8881;-83
2022/07/24 11:22:12;;;;;;;;;6.00;6.00;;;;;;;;4998323;28;8856;-86
2022/07/24 11:25:14;;;;;;;;;8.00;6.40;;;;;;;;5032786;28;8944;-85
2022/07/24 11:27:50;;;;;;;;;8.40;7.00;;;;;;;;5039294;28;8863;-82
2022/07/24 11:30:19;;;;;;;;;9.00;9.00;;;;;;;;5041011;28;9009;-84
2022/07/24 11:32:49;;;;;;;;;6.20;6.20;;;;;;;;5038592;28;8855;-84
2022/07/24 11:35:16;;;;;;;;;4.00;4.00;;;;;;;;5042710;28;8875;-82
2022/07/24 11:37:46;;;;;;;;;7.00;7.00;;;;;;;;5039553;28;8917;-85
2022/07/24 11:40:18;;;;;;;;;7.00;7.00;;;;;;;;5038211;28;8900;-82
2022/07/24 11:42:45;;;;;;;;;6.60;6.60;;;;;;;;5036466;28;8905;-82
2022/07/24 11:45:12;;;;;;;;;8.40;8.40;;;;;;;;5042576;28;8850;-76
2022/07/24 11:47:40;;;;;;;;;5.80;5.80;;;;;;;;5038917;28;8885;-82
2022/07/24 11:50:09;;;;;;;;;12.80;12.80;;;;;;;;5041264;28;8875;-77
2022/07/24 11:52:38;;;;;;;;;7.60;7.60;;;;;;;;5036432;28;8950;-78
2022/07/24 11:55:10;;;;;;;;;5.60;5.60;;;;;;;;5040836;28;8965;-79
2022/07/24 11:57:39;;;;;;;;;6.00;6.00;;;;;;;;5039670;28;8879;-79
2022/07/24 12:00:10;;;;;;;;;6.40;6.40;;;;;;;;5043754;28;8897;-80
2022/07/24 12:02:38;;;;;;;;;6.20;6.20;;;;;;;;5039822;28;8906;-78
2022/07/24 12:05:08;;;;;;;;;8.20;6.60;;;;;;;;5041527;28;8883;-79
2022/07/24 12:07:36;;;;;;;;;7.40;6.00;;;;;;;;5033381;28;8881;-79
2022/07/24 12:10:08;;;;;;;;;8.20;6.60;;;;;;;;5039594;28;8886;-78
2022/07/24 12:12:37;;;;;;;;;7.00;7.00;;;;;;;;5033954;28;8920;-82
2022/07/24 12:15:09;;;;;;;;;5.60;5.60;;;;;;;;5042403;28;8879;-85
2022/07/24 12:17:55;;;;;;;;;5.00;5.00;;;;;;;;5037221;28;8965;-86
2022/07/24 12:20:23;;;;;;;;;5.60;5.60;;;;;;;;5035685;28;8887;-82
2022/07/24 12:22:50;;;;;;;;;4.60;4.60;;;;;;;;5038238;28;8890;-83
2022/07/24 12:25:19;;;;;;;;;4.80;4.80;;;;;;;;5038244;28;8989;-82
2022/07/24 12:27:48;;;;;;;;;6.60;6.60;;;;;;;;5033265;28;9001;-83
2022/07/24 12:30:21;;;;;;;;;6.80;6.80;;;;;;;;5037358;28;8870;-82
2022/07/24 12:33:00;;;;;;;;;5.20;5.20;;;;;;;;5034100;28;8869;-88
2022/07/24 12:35:28;;;;;;;;;7.60;7.60;;;;;;;;5034753;28;8881;-82
2022/07/24 12:37:57;;;;;;;;;5.80;5.80;;;;;;;;5034544;28;8873;-84
2022/07/24 12:40:38;;;;;;;;;4.20;4.20;;;;;;;;5038068;28;8893;-85
2022/07/24 12:43:09;;;;;;;;;7.40;6.00;;;;;;;;5035061;28;8873;-82
2022/07/24 12:45:38;;;;;;;;;6.80;6.80;;;;;;;;5037259;28;8905;-88
2022/07/24 12:48:20;;;;;;;;;5.60;5.60;;;;;;;;5035109;28;8916;-86
2022/07/24 12:51:02;;;;;;;;;6.60;6.60;;;;;;;;5033468;28;8874;-84
2022/07/24 12:53:32;;;;;;;;;7.60;6.40;;;;;;;;5037254;28;8882;-85
2022/07/24 12:56:11;;;;;;;;;6.00;4.20;;;;;;;;5035409;28;8870;-84
2022/07/24 12:58:56;;;;;;;;;4.60;4.60;;;;;;;;5033403;28;8867;-82
2022/07/24 13:01:26;;;;;;;;;3.20;3.20;;;;;;;;5037897;28;8830;-84
2022/07/24 13:03:57;;;;;;;;;6.80;6.60;;;;;;;;5037034;28;8866;-84
2022/07/24 13:06:39;;;;;;;;;8.00;7.00;;;;;;;;5034704;28;8875;-80
2022/07/24 13:09:08;;;;;;;;;4.20;4.20;;;;;;;;5038022;28;8867;-84
2022/07/24 13:11:38;;;;;;;;;5.00;5.00;;;;;;;;5037151;28;8884;-85
2022/07/24 13:14:07;;;;;;;;;6.00;6.00;;;;;;;;5037149;28;8905;-86
2022/07/24 13:16:36;;;;;;;;;6.00;6.00;;;;;;;;5032497;28;8863;-86
2022/07/24 13:19:04;;;;;;;;;4.40;4.40;;;;;;;;5034868;28;9711;-82
2022/07/24 13:21:31;;;;;;;;;7.20;7.20;;;;;;;;5039143;28;8875;-81
2022/07/24 13:23:59;;;;;;;;;5.20;5.20;;;;;;;;5039383;28;8859;-84
2022/07/24 13:26:27;;;;;;;;;5.20;5.20;;;;;;;;5035450;28;8835;-82
2022/07/24 13:28:57;;;;;;;;;5.60;5.60;;;;;;;;5035442;28;9243;-83
2022/07/24 13:31:24;;;;;;;;;6.00;6.00;;;;;;;;5037096;28;8823;-82
2022/07/24 13:33:52;;;;;;;;;7.00;5.00;;;;;;;;5041594;28;8859;-80
2022/07/24 13:36:20;;;;;;;;;6.60;6.60;;;;;;;;5037960;28;8875;-84
2022/07/24 13:38:47;;;;;;;;;6.80;6.80;;;;;;;;5036140;28;8975;-83
2022/07/24 13:41:16;;;;;;;;;3.60;3.60;;;;;;;;5030768;28;9644;-81
2022/07/24 13:43:44;;;;;;;;;8.40;6.80;;;;;;;;5035050;28;8842;-80
2022/07/24 13:46:14;;;;;;;;;6.00;6.00;;;;;;;;5036097;28;8850;-81
2022/07/24 13:48:42;;;;;;;;;6.20;6.20;;;;;;;;5036839;28;8855;-87
2022/07/24 13:51:09;;;;;;;;;6.60;6.60;;;;;;;;5037121;28;9013;-87
2022/07/24 13:53:37;;;;;;;;;7.40;7.40;;;;;;;;5038269;28;8859;-87
2022/07/24 13:56:06;;;;;;;;;6.20;6.20;;;;;;;;5031653;28;9338;-90
2022/07/24 13:58:35;;;;;;;;;8.00;8.00;;;;;;;;5036362;28;8851;-81
2022/07/24 14:01:02;;;;;;;;;8.00;8.00;;;;;;;;5036357;28;8862;-82
2022/07/24 14:03:31;;;;;;;;;5.00;5.00;;;;;;;;5037845;28;8910;-90
2022/07/24 14:05:58;;;;;;;;;7.00;7.00;;;;;;;;5035146;28;8894;-89
2022/07/24 14:08:26;;;;;;;;;6.60;6.60;;;;;;;;5038017;28;8875;-79
2022/07/24 14:10:56;;;;;;;;;7.00;7.00;;;;;;;;5036381;28;8871;-83
2022/07/24 14:13:24;;;;;;;;;7.20;7.20;;;;;;;;5034324;28;8874;-80
2022/07/24 14:15:51;;;;;;;;;6.20;6.20;;;;;;;;5041279;28;8897;-84
2022/07/24 14:18:19;;;;;;;;;8.00;8.00;;;;;;;;5039389;28;8890;-85
2022/07/24 14:20:48;;;;;;;;;6.20;6.20;;;;;;;;5038512;28;9738;-84
2022/07/24 14:23:15;;;;;;;;;7.00;7.00;;;;;;;;5047059;28;8882;-86
2022/07/24 14:25:44;;;;;;;;;6.40;6.40;;;;;;;;5038091;28;8921;-81
2022/07/24 14:28:11;;;;;;;;;9.00;7.20;;;;;;;;5044438;28;8859;-86
2022/07/24 14:30:39;;;;;;;;;5.80;5.80;;;;;;;;5037704;28;8811;-83
2022/07/24 14:33:06;;;;;;;;;6.80;6.80;;;;;;;;5038582;28;8852;-80
2022/07/24 14:35:34;;;;;;;;;6.60;6.60;;;;;;;;5038214;28;9625;-78
2022/07/24 14:38:04;;;;;;;;;6.20;4.20;;;;;;;;5037640;28;8909;-82
2022/07/24 14:40:31;;;;;;;;;7.80;6.20;;;;;;;;5047197;28;8858;-81
2022/07/24 14:42:58;;;;;;;;;6.00;6.00;;;;;;;;5040550;28;8894;-77
2022/07/24 14:45:26;;;;;;;;;7.20;7.20;;;;;;;;5042203;28;8933;-79
2022/07/24 14:47:53;;;;;;;;;6.80;6.80;;;;;;;;5039893;28;8869;-75
2022/07/24 14:50:20;;;;;;;;;6.00;6.00;;;;;;;;5043561;28;8905;-81
2022/07/24 14:52:48;;;;;;;;;6.40;6.40;;;;;;;;5037117;28;8859;-80
2022/07/24 14:55:16;;;;;;;;;5.40;5.40;;;;;;;;5042720;28;8870;-79